Startpagina
METAR-TAF:

METAR-TAF

Vliegvelden :

Mfuwe, Zambia

breedte: 13-15-32S, lengte: 031-56-12E, hoogte: 573 m

METAR: ontbreekt

Tijdstip: 23:58 (21:58 UTC)

Verwachting

Dit bericht is 5 uur en het 58 minuten geleden gemaakt, om 16:00 UTC
Verwachting geldig van 09 om 18 UTC tot 10 om 24 UTC
Wind 5 kt uit het zuidzuidoosten
Zicht 10 km of meer
geen wolken onder 1500 m en geen cumulonimbus
Wijzigt naar
van 10 om 06 UTC tot 10 om 08 UTC
Wind 10 kt uit het zuidzuidoosten
Zicht 10 km of meer
Weinig wolken op 1000 ft
Wijzigt naar
van 10 om 11 UTC tot 10 om 13 UTC
Wind 10 kt uit het zuidzuidoosten met uitschieters tot 15 kt
Verspreide wolken op 4000 ft
Wijzigt naar
van 10 om 16 UTC tot 10 om 18 UTC
Wind 5 kt uit het zuidzuidoosten
Zicht 10 km of meer
geen wolken onder 1500 m en geen cumulonimbus

TAF: FLMF 091600Z 0918/1024 16005KT CAVOK BECMG 1006/1008 15010KT 9999 FEW010 BECMG 1011/1013 15010G15KT SCT040 BECMG 1016/1018 16005KT CAVOK

Waarnemingen en weersverwachtingen van meer dan 4000 vliegvelden (METAR en TAF).

De beschikbare stations zijn de gele en rode punten op de kaart.

Ga met uw muis naar het station om de naam te zien.

Klik dan om waarnemingen en weersverwachtingen te zien.

kaart wijzigen: klik op de groene knoppen met een zwart kruis om in te zoomen, op de groene knop met een streepje om uit te zoomen of op de groene pijlen voor aangrenzende kaarten.


METAR-TAF: